Time;durP1;ratioP1;P1;durP2;ratioP2;P2;SDS_P1;SDS_P2;PMS_P1;PMS_P2;Temp;Humidity;BMP_temperature;BMP_pressure;BME280_temperature;BME280_humidity;BME280_pressure;Samples;Min_cycle;Max_cycle;Signal;HPM_P1;HPM_P2
2021/12/22 00:00:35;;;;;;;10.03;6.50;;;3.30;99.90;;;;;;5053426;28;20221;-94
2021/12/22 00:03:08;;;;;;;8.73;6.30;;;3.30;99.90;;;;;;5037070;28;20205;-93
2021/12/22 00:05:44;;;;;;;10.23;6.57;;;3.30;99.90;;;;;;5039432;28;20657;-94
2021/12/22 00:08:17;;;;;;;9.63;6.80;;;3.40;99.90;;;;;;5018881;28;20232;-94
2021/12/22 00:10:49;;;;;;;9.63;6.67;;;3.40;99.90;;;;;;5035869;28;20283;-93
2021/12/22 00:13:20;;;;;;;10.93;6.90;;;3.40;99.90;;;;;;5036594;28;20296;-94
2021/12/22 00:15:51;;;;;;;8.93;6.97;;;3.40;99.90;;;;;;5036232;28;20259;-93
2021/12/22 00:18:22;;;;;;;9.40;7.53;;;3.40;99.90;;;;;;5037599;28;20244;-93
2021/12/22 00:20:53;;;;;;;9.70;7.53;;;3.40;99.90;;;;;;5036002;28;20648;-92
2021/12/22 00:23:26;;;;;;;11.07;7.27;;;3.50;99.90;;;;;;5037206;28;20215;-93
2021/12/22 00:25:57;;;;;;;9.77;7.40;;;3.50;99.90;;;;;;5037264;28;20219;-93
2021/12/22 00:28:28;;;;;;;11.23;8.30;;;3.50;99.90;;;;;;5018163;28;20208;-94
2021/12/22 00:31:00;;;;;;;10.57;8.37;;;3.40;99.90;;;;;;5036049;28;20319;-95
2021/12/22 00:33:32;;;;;;;9.13;7.23;;;3.50;99.90;;;;;;5036165;28;20296;-94
2021/12/22 00:36:03;;;;;;;9.27;7.03;;;3.40;99.90;;;;;;5035608;28;20228;-94
2021/12/22 00:38:35;;;;;;;9.23;7.57;;;3.40;99.90;;;;;;5035581;28;20247;-94
2021/12/22 00:41:07;;;;;;;9.90;7.27;;;3.30;99.90;;;;;;5035587;28;20209;-95
2021/12/22 00:43:38;;;;;;;7.97;6.73;;;3.30;99.90;;;;;;5036048;28;20221;-95
2021/12/22 00:46:12;;;;;;;8.70;6.40;;;3.40;99.90;;;;;;5035201;28;20245;-95
2021/12/22 00:48:43;;;;;;;7.70;6.10;;;3.50;99.90;;;;;;5035730;28;20223;-94
2021/12/22 00:51:14;;;;;;;8.60;6.57;;;3.50;99.90;;;;;;5035898;28;20319;-94
2021/12/22 00:53:48;;;;;;;10.70;6.93;;;3.50;99.90;;;;;;5043338;28;20700;-95
2021/12/22 00:56:19;;;;;;;9.20;6.83;;;3.50;99.90;;;;;;5036106;28;20291;-96
2021/12/22 00:58:50;;;;;;;9.23;6.77;;;3.40;99.90;;;;;;5035896;28;20265;-96
2021/12/22 01:01:20;;;;;;;9.33;6.90;;;3.40;99.90;;;;;;5035287;28;20265;-95
2021/12/22 01:03:51;;;;;;;8.43;6.67;;;3.40;99.90;;;;;;5035392;28;20240;-94
2021/12/22 01:06:22;;;;;;;9.10;6.90;;;3.50;99.90;;;;;;5034906;28;20201;-95
2021/12/22 01:08:55;;;;;;;8.00;6.33;;;3.50;99.90;;;;;;5035444;28;20255;-94
2021/12/22 01:11:26;;;;;;;9.77;7.20;;;3.50;99.90;;;;;;5035688;28;20232;-94
2021/12/22 01:13:57;;;;;;;9.47;7.30;;;3.50;99.90;;;;;;5035065;28;20292;-94
2021/12/22 01:16:28;;;;;;;8.97;7.13;;;3.60;99.90;;;;;;5034693;28;20788;-95
2021/12/22 01:19:03;;;;;;;10.33;7.33;;;3.60;99.90;;;;;;5034198;28;20212;-93
2021/12/22 01:21:41;;;;;;;9.63;6.93;;;3.60;99.90;;;;;;5035102;28;20205;-94
2021/12/22 01:24:21;;;;;;;8.87;7.50;;;3.60;99.90;;;;;;5036361;28;20247;-94
2021/12/22 01:26:57;;;;;;;13.47;7.53;;;3.70;99.90;;;;;;5037110;28;20312;-94
2021/12/22 01:29:28;;;;;;;11.23;8.37;;;3.60;99.90;;;;;;5035319;28;20236;-94
2021/12/22 01:32:00;;;;;;;11.67;8.40;;;3.60;99.90;;;;;;5036261;28;20260;-94
2021/12/22 01:34:32;;;;;;;10.90;7.40;;;3.60;99.90;;;;;;5035182;28;20213;-94
2021/12/22 01:37:03;;;;;;;10.33;8.00;;;3.60;99.90;;;;;;5034871;28;20213;-94
2021/12/22 01:39:36;;;;;;;11.77;7.83;;;3.50;99.90;;;;;;5035746;28;20288;-94
2021/12/22 01:42:07;;;;;;;10.67;8.10;;;3.60;99.90;;;;;;5037049;28;20673;-94
2021/12/22 01:44:59;;;;;;;11.23;8.73;;;3.50;99.90;;;;;;5036443;28;20578;-93
2021/12/22 01:50:24;;;;;;;11.43;8.27;;;3.60;99.90;;;;;;5056628;28;20216;-94
2021/12/22 01:52:55;;;;;;;9.50;7.90;;;3.60;99.90;;;;;;5056461;28;20256;-94
2021/12/22 01:55:35;;;;;;;11.63;8.10;;;3.60;99.90;;;;;;5056221;28;20204;-93
2021/12/22 01:58:13;;;;;;;10.50;8.33;;;3.70;99.90;;;;;;5055585;28;20185;-94
2021/12/22 02:00:44;;;;;;;10.93;7.60;;;3.80;99.90;;;;;;5056059;28;20204;-94
2021/12/22 02:03:17;;;;;;;11.83;7.27;;;3.80;99.90;;;;;;5039706;28;20192;-95
2021/12/22 02:05:48;;;;;;;12.83;7.80;;;3.80;99.90;;;;;;5056113;28;20212;-93
2021/12/22 02:08:19;;;;;;;10.10;7.90;;;3.80;99.90;;;;;;5054157;28;20219;-94
2021/12/22 02:10:53;;;;;;;13.07;7.90;;;3.70;99.90;;;;;;5055283;28;20208;-94
2021/12/22 02:13:30;;;;;;;10.07;7.67;;;3.70;99.90;;;;;;5052640;28;20212;-93
2021/12/22 02:16:06;;;;;;;13.40;8.33;;;3.70;99.90;;;;;;5045233;28;20243;-96
2021/12/22 02:18:39;;;;;;;11.93;8.33;;;3.60;99.90;;;;;;5046002;28;20221;-93
2021/12/22 02:21:13;;;;;;;10.73;7.97;;;3.60;99.90;;;;;;5045202;28;20308;-93
2021/12/22 02:23:44;;;;;;;10.77;8.33;;;3.50;99.90;;;;;;5045865;28;20220;-94
2021/12/22 02:26:20;;;;;;;12.37;9.23;;;3.50;99.90;;;;;;5040297;28;20243;-94
2021/12/22 02:28:58;;;;;;;12.70;8.17;;;3.50;99.90;;;;;;5026572;28;20204;-94
2021/12/22 02:31:40;;;;;;;13.87;8.53;;;3.50;99.90;;;;;;5043468;28;20319;-94
2021/12/22 02:34:15;;;;;;;11.90;7.90;;;3.40;99.90;;;;;;5041113;28;20208;-93
2021/12/22 02:36:51;;;;;;;11.93;7.87;;;3.50;99.90;;;;;;5039565;28;20231;-94
2021/12/22 02:39:22;;;;;;;11.57;8.27;;;3.50;99.90;;;;;;5040006;28;20200;-94
2021/12/22 02:41:53;;;;;;;10.90;8.13;;;3.50;99.90;;;;;;5023469;28;20264;-94
2021/12/22 02:44:29;;;;;;;9.83;7.60;;;3.50;99.90;;;;;;5029161;28;20235;-94
2021/12/22 02:46:59;;;;;;;9.60;7.30;;;3.50;99.90;;;;;;5041912;28;20200;-94
2021/12/22 02:49:31;;;;;;;11.10;7.13;;;3.50;99.90;;;;;;5040323;28;20236;-94
2021/12/22 02:52:04;;;;;;;10.90;6.63;;;3.60;99.90;;;;;;5040705;28;20342;-96
2021/12/22 02:54:41;;;;;;;10.93;7.03;;;3.60;99.90;;;;;;5039840;28;20232;-95
2021/12/22 02:57:23;;;;;;;9.27;6.17;;;3.70;99.90;;;;;;5038275;28;20275;-95
2021/12/22 03:00:22;;;;;;;9.57;6.60;;;3.70;99.90;;;;;;5044494;28;20633;-94
2021/12/22 03:02:59;;;;;;;8.20;5.53;;;3.70;99.90;;;;;;5039839;28;20225;-95
2021/12/22 03:05:30;;;;;;;8.43;5.77;;;3.70;99.90;;;;;;5039990;28;20296;-94
2021/12/22 03:08:03;;;;;;;8.53;5.53;;;3.70;99.90;;;;;;5038802;28;20277;-96
2021/12/22 03:10:35;;;;;;;7.40;5.23;;;3.80;99.90;;;;;;5038878;28;20300;-94
2021/12/22 03:13:06;;;;;;;7.50;5.60;;;3.80;99.90;;;;;;5022073;28;20264;-94
2021/12/22 03:15:37;;;;;;;7.70;5.60;;;3.90;99.90;;;;;;5038621;28;20213;-95
2021/12/22 03:18:08;;;;;;;8.67;5.90;;;3.90;99.90;;;;;;5038967;28;20227;-95
2021/12/22 03:20:40;;;;;;;8.43;5.83;;;3.90;99.90;;;;;;5039230;28;20241;-94
2021/12/22 03:23:13;;;;;;;7.87;5.60;;;3.90;99.90;;;;;;5022375;28;20209;-94
2021/12/22 03:25:44;;;;;;;7.77;5.33;;;4.00;99.90;;;;;;5038800;28;20231;-93
2021/12/22 03:28:15;;;;;;;6.83;5.57;;;4.10;99.90;;;;;;5038788;28;20231;-93
2021/12/22 03:30:48;;;;;;;8.23;5.90;;;4.10;99.90;;;;;;5038771;28;20599;-93
2021/12/22 03:33:19;;;;;;;8.40;6.13;;;4.10;99.90;;;;;;5038138;28;20328;-93
2021/12/22 03:35:50;;;;;;;9.07;5.80;;;4.10;99.90;;;;;;5036033;28;20201;-94
2021/12/22 03:38:23;;;;;;;9.53;5.80;;;4.10;99.90;;;;;;5037362;28;20243;-93
2021/12/22 03:40:54;;;;;;;8.20;6.77;;;4.10;99.90;;;;;;5038151;28;20271;-93
2021/12/22 03:43:24;;;;;;;8.33;6.10;;;4.10;99.90;;;;;;5036965;28;20233;-93
2021/12/22 03:45:56;;;;;;;11.63;8.07;;;4.20;99.90;;;;;;5037596;28;20262;-94
2021/12/22 03:48:28;;;;;;;10.07;7.20;;;4.10;99.90;;;;;;5019622;28;20208;-93
2021/12/22 03:51:00;;;;;;;11.90;7.93;;;4.20;99.90;;;;;;5037098;28;20205;-93
2021/12/22 03:53:34;;;;;;;9.63;6.97;;;4.20;99.90;;;;;;5036568;28;20261;-94
2021/12/22 03:56:05;;;;;;;9.10;7.03;;;4.20;99.90;;;;;;5022236;28;20689;-94
2021/12/22 03:58:36;;;;;;;11.73;7.50;;;4.10;99.90;;;;;;5036858;28;20201;-93
2021/12/22 04:01:07;;;;;;;9.83;7.27;;;4.20;99.90;;;;;;5037720;28;20240;-95
2021/12/22 04:03:41;;;;;;;10.73;7.30;;;4.20;99.90;;;;;;5018406;28;20556;-94
2021/12/22 04:06:12;;;;;;;12.43;7.67;;;4.30;99.90;;;;;;5017059;28;20214;-93
2021/12/22 04:08:44;;;;;;;11.07;7.70;;;4.30;99.90;;;;;;5017546;28;20226;-94
2021/12/22 04:11:19;;;;;;;10.13;7.37;;;4.30;99.90;;;;;;5016945;28;20209;-94
2021/12/22 04:13:51;;;;;;;12.70;7.97;;;4.30;99.90;;;;;;5017375;28;20320;-94
2021/12/22 04:16:22;;;;;;;10.77;7.73;;;4.30;99.90;;;;;;5016833;28;20280;-94
2021/12/22 04:18:53;;;;;;;12.20;8.10;;;4.40;99.90;;;;;;5017524;28;20201;-93
2021/12/22 04:21:24;;;;;;;10.90;7.30;;;4.40;99.90;;;;;;5017495;28;20292;-94
2021/12/22 04:23:57;;;;;;;9.83;7.33;;;4.30;99.90;;;;;;5019252;28;20233;-93
2021/12/22 04:26:31;;;;;;;9.77;7.70;;;4.30;99.90;;;;;;5017229;28;20233;-93
2021/12/22 04:29:02;;;;;;;10.70;8.07;;;4.30;99.90;;;;;;5027831;28;20196;-94
2021/12/22 04:31:33;;;;;;;10.67;7.80;;;4.30;99.90;;;;;;5037014;28;20217;-92
2021/12/22 04:34:08;;;;;;;10.03;8.03;;;4.30;99.90;;;;;;5036488;28;20256;-95
2021/12/22 04:36:39;;;;;;;9.53;7.67;;;4.40;99.90;;;;;;5024755;28;20201;-93
2021/12/22 04:39:13;;;;;;;10.37;7.80;;;4.30;99.90;;;;;;5017710;28;20578;-94
2021/12/22 04:41:44;;;;;;;9.83;7.37;;;4.30;99.90;;;;;;5017133;28;20296;-95
2021/12/22 04:44:15;;;;;;;9.43;7.63;;;4.40;99.90;;;;;;5016224;28;20233;-94
2021/12/22 04:46:46;;;;;;;13.07;7.80;;;4.50;99.90;;;;;;5015449;28;20267;-94
2021/12/22 04:49:17;;;;;;;12.13;8.93;;;4.40;99.90;;;;;;5020157;28;20210;-94
2021/12/22 04:51:52;;;;;;;11.43;8.57;;;4.40;99.90;;;;;;5021050;28;20214;-94
2021/12/22 04:54:35;;;;;;;11.57;7.53;;;4.40;99.90;;;;;;5018364;28;20244;-93
2021/12/22 04:57:06;;;;;;;10.67;7.47;;;4.40;99.90;;;;;;5015660;28;20274;-93
2021/12/22 04:59:37;;;;;;;11.63;9.87;;;4.40;99.90;;;;;;5016096;28;20237;-93
2021/12/22 05:02:09;;;;;;;14.53;11.10;;;4.50;99.90;;;;;;5020820;28;20212;-94
2021/12/22 05:04:41;;;;;;;11.93;8.60;;;4.50;99.90;;;;;;5038110;28;20205;-93
2021/12/22 05:07:12;;;;;;;9.50;6.77;;;4.60;99.90;;;;;;5037561;28;20204;-93
2021/12/22 05:09:45;;;;;;;11.93;8.57;;;4.60;99.90;;;;;;5018602;28;20213;-93
2021/12/22 05:12:16;;;;;;;8.07;5.67;;;4.50;99.90;;;;;;5020355;28;20286;-94
2021/12/22 05:14:49;;;;;;;5.37;4.63;;;4.60;99.90;;;;;;5016331;28;20301;-95
2021/12/22 05:17:25;;;;;;;6.70;4.97;;;4.80;99.90;;;;;;5017675;28;20226;-93
2021/12/22 05:19:56;;;;;;;6.90;5.03;;;4.90;99.90;;;;;;5016269;28;20582;-94
2021/12/22 05:22:28;;;;;;;5.03;3.93;;;5.00;99.90;;;;;;5015819;28;20285;-93
2021/12/22 05:25:02;;;;;;;5.97;4.33;;;5.10;99.90;;;;;;5016310;28;20240;-92
2021/12/22 05:27:34;;;;;;;4.80;3.80;;;5.10;99.90;;;;;;5017366;28;20284;-92
2021/12/22 05:30:07;;;;;;;5.50;4.10;;;5.20;99.90;;;;;;5017553;28;20236;-93
2021/12/22 05:32:38;;;;;;;7.50;4.50;;;5.20;99.90;;;;;;5017572;28;20249;-94
2021/12/22 05:35:11;;;;;;;7.57;4.60;;;5.20;99.90;;;;;;5015151;28;20288;-94
2021/12/22 05:37:42;;;;;;;5.50;4.33;;;5.20;99.90;;;;;;5017413;28;20206;-94
2021/12/22 05:40:16;;;;;;;6.80;4.33;;;5.20;99.90;;;;;;5017370;28;20268;-94
2021/12/22 05:42:47;;;;;;;6.07;4.03;;;5.30;99.90;;;;;;4998374;28;20329;-95
2021/12/22 05:45:18;;;;;;;4.77;3.73;;;5.30;99.90;;;;;;5015197;28;20220;-94
2021/12/22 05:47:50;;;;;;;4.90;3.97;;;5.30;99.90;;;;;;5014361;28;20214;-95
2021/12/22 05:50:22;;;;;;;4.90;4.40;;;5.30;99.90;;;;;;5015810;28;20230;-95
2021/12/22 05:52:53;;;;;;;5.53;3.83;;;5.40;99.90;;;;;;5015036;28;20225;-95
2021/12/22 05:55:26;;;;;;;5.63;4.03;;;5.40;99.90;;;;;;5017824;28;20289;-95
2021/12/22 05:57:57;;;;;;;5.00;3.70;;;5.40;99.90;;;;;;5013983;28;20302;-94
2021/12/22 06:00:28;;;;;;;4.10;3.47;;;5.40;99.90;;;;;;5014976;28;20296;-95
2021/12/22 06:02:59;;;;;;;4.00;3.13;;;5.50;99.90;;;;;;5015444;28;20297;-94
2021/12/22 06:05:30;;;;;;;3.83;2.97;;;5.60;99.90;;;;;;5014540;28;20206;-95
2021/12/22 06:08:01;;;;;;;4.27;3.00;;;5.60;99.90;;;;;;5014131;28;20210;-95
2021/12/22 06:10:34;;;;;;;3.90;2.90;;;5.60;99.90;;;;;;5018497;28;20712;-94
2021/12/22 06:13:06;;;;;;;7.60;3.57;;;5.60;99.90;;;;;;5035327;28;20710;-95
2021/12/22 06:15:39;;;;;;;5.37;3.80;;;5.70;99.90;;;;;;5035099;28;20256;-95
2021/12/22 06:18:09;;;;;;;6.90;4.37;;;5.80;99.90;;;;;;5032610;28;20204;-94
2021/12/22 06:20:40;;;;;;;9.83;7.57;;;5.70;99.90;;;;;;5035266;28;20240;-96
2021/12/22 06:23:12;;;;;;;10.30;7.60;;;5.60;99.90;;;;;;5034688;28;20283;-95
2021/12/22 06:25:45;;;;;;;8.40;6.23;;;5.50;99.90;;;;;;5036664;28;20211;-94
2021/12/22 06:28:16;;;;;;;8.17;5.60;;;5.30;99.90;;;;;;5042433;28;20277;-94
2021/12/22 06:30:47;;;;;;;8.77;6.77;;;5.30;99.90;;;;;;5018369;28;20680;-93
2021/12/22 06:33:18;;;;;;;9.67;7.40;;;5.20;99.90;;;;;;5034398;28;20232;-95
2021/12/22 06:35:50;;;;;;;12.17;7.37;;;5.40;99.90;;;;;;5034586;28;20629;-94
2021/12/22 06:38:21;;;;;;;10.37;7.10;;;5.40;99.90;;;;;;5037594;28;20232;-93
2021/12/22 06:40:54;;;;;;;12.37;6.57;;;5.30;99.90;;;;;;5038308;28;20279;-94
2021/12/22 06:43:25;;;;;;;9.87;6.63;;;5.30;99.90;;;;;;5035282;28;20661;-94
2021/12/22 06:45:56;;;;;;;4.43;3.10;;;5.30;99.90;;;;;;5034472;28;20235;-94
2021/12/22 06:48:28;;;;;;;5.33;3.47;;;5.60;99.90;;;;;;5111483;23;20217;-94
2021/12/22 06:50:58;;;;;;;8.53;4.00;;;5.80;99.90;;;;;;5055002;28;20213;-94
2021/12/22 06:53:34;;;;;;;4.70;3.47;;;5.90;99.90;;;;;;5032750;28;20257;-93
2021/12/22 06:56:07;;;;;;;4.77;3.07;;;5.90;99.90;;;;;;5035303;28;20228;-95
2021/12/22 06:58:38;;;;;;;2.97;2.63;;;6.10;99.90;;;;;;5036933;28;20347;-94
2021/12/22 07:01:12;;;;;;;4.07;2.97;;;6.20;99.90;;;;;;5035515;28;20276;-96
2021/12/22 07:03:44;;;;;;;4.77;2.97;;;6.30;99.90;;;;;;5034998;28;20223;-95
2021/12/22 07:06:15;;;;;;;3.87;2.73;;;6.30;99.90;;;;;;5016408;28;20229;-94
2021/12/22 07:08:48;;;;;;;4.67;2.90;;;6.40;99.90;;;;;;5035135;28;20268;-96
2021/12/22 07:11:21;;;;;;;9.03;3.40;;;6.40;99.90;;;;;;5002039;28;20747;-95
2021/12/22 07:13:51;;;;;;;5.30;3.40;;;6.40;99.90;;;;;;5034235;28;20700;-94
2021/12/22 07:16:23;;;;;;;7.63;4.50;;;6.40;99.90;;;;;;5033695;28;20254;-95
2021/12/22 07:18:56;;;;;;;3.70;3.20;;;6.40;99.90;;;;;;5038018;28;20201;-95
2021/12/22 07:21:27;;;;;;;6.43;3.33;;;6.40;99.90;;;;;;5020353;28;20316;-95
2021/12/22 07:23:58;;;;;;;4.63;3.77;;;6.40;99.90;;;;;;5041319;28;20309;-95
2021/12/22 07:26:32;;;;;;;3.80;3.20;;;6.40;99.90;;;;;;5039948;28;20205;-94
2021/12/22 07:29:03;;;;;;;4.23;3.57;;;6.30;99.90;;;;;;5037933;28;20637;-94
2021/12/22 07:31:34;;;;;;;4.50;3.57;;;6.30;99.90;;;;;;5037655;28;20725;-95
2021/12/22 07:34:17;;;;;;;5.57;4.37;;;6.30;99.90;;;;;;5037885;28;20319;-94
2021/12/22 07:37:02;;;;;;;6.33;4.13;;;6.30;99.90;;;;;;5035989;28;20614;-95
2021/12/22 07:39:33;;;;;;;8.70;4.23;;;6.30;99.90;;;;;;5037723;28;20280;-95
2021/12/22 07:42:06;;;;;;;4.97;4.40;;;6.30;99.90;;;;;;5037383;28;20240;-93
2021/12/22 07:44:37;;;;;;;7.50;4.70;;;6.30;99.90;;;;;;5037290;28;20296;-95
2021/12/22 07:47:08;;;;;;;6.30;4.40;;;6.30;99.90;;;;;;5036077;28;20648;-95
2021/12/22 07:49:39;;;;;;;7.47;5.47;;;6.30;99.90;;;;;;5037312;28;20244;-95
2021/12/22 07:52:10;;;;;;;6.87;5.50;;;6.30;99.90;;;;;;5037936;28;20263;-93
2021/12/22 07:54:41;;;;;;;7.20;5.63;;;6.30;99.90;;;;;;5037181;28;20264;-95
2021/12/22 07:57:14;;;;;;;7.57;6.47;;;6.20;99.90;;;;;;5036979;28;20704;-95
2021/12/22 07:59:46;;;;;;;6.57;5.50;;;6.20;99.90;;;;;;5039518;28;20624;-94
2021/12/22 08:02:16;;;;;;;7.80;5.17;;;6.20;99.90;;;;;;5038197;28;20219;-94
2021/12/22 08:04:48;;;;;;;7.73;5.23;;;6.30;99.90;;;;;;5037525;28;20217;-95
2021/12/22 08:07:19;;;;;;;7.23;5.20;;;6.30;99.90;;;;;;5037459;28;20201;-94
2021/12/22 08:09:50;;;;;;;6.80;4.93;;;6.30;99.90;;;;;;4671098;28;10000780;-94
2021/12/22 08:12:23;;;;;;;6.00;4.83;;;6.30;99.90;;;;;;5016955;28;20308;-91
2021/12/22 08:14:54;;;;;;;6.10;4.87;;;6.30;99.90;;;;;;5015943;28;20229;-93
2021/12/22 08:17:27;;;;;;;4.87;4.00;;;6.30;99.90;;;;;;5015579;28;20287;-95
2021/12/22 08:19:58;;;;;;;5.90;4.60;;;6.30;99.90;;;;;;5035970;28;20220;-95
2021/12/22 08:22:29;;;;;;;5.47;4.47;;;6.40;99.90;;;;;;5038654;28;20209;-94
2021/12/22 08:25:00;;;;;;;5.77;4.13;;;6.40;99.90;;;;;;5040163;28;20197;-95
2021/12/22 08:27:33;;;;;;;6.60;4.37;;;6.50;99.90;;;;;;5036391;28;20209;-95
2021/12/22 08:30:04;;;;;;;6.50;4.23;;;6.50;99.90;;;;;;5036643;28;20300;-95
2021/12/22 08:32:36;;;;;;;5.83;4.37;;;6.50;99.90;;;;;;5036521;28;20590;-94
2021/12/22 08:35:10;;;;;;;5.23;3.90;;;6.50;99.90;;;;;;5036033;28;20238;-94
2021/12/22 08:40:29;;;;;;;5.37;4.87;;;6.50;99.90;;;;;;5038768;28;20240;-95
2021/12/22 08:43:01;;;;;;;4.97;4.17;;;6.50;99.90;;;;;;5037843;28;20205;-94
2021/12/22 08:45:33;;;;;;;5.37;4.30;;;6.50;99.90;;;;;;5037899;28;20244;-93
2021/12/22 08:48:04;;;;;;;7.30;3.60;;;6.50;99.90;;;;;;5036734;28;20241;-94
2021/12/22 08:50:35;;;;;;;5.07;3.80;;;6.50;99.90;;;;;;5037098;28;20217;-96
2021/12/22 08:53:06;;;;;;;4.77;3.30;;;6.50;99.90;;;;;;5036934;28;20292;-94
2021/12/22 08:55:37;;;;;;;4.60;3.23;;;6.50;99.90;;;;;;5036468;28;20331;-94
2021/12/22 08:58:10;;;;;;;4.20;2.77;;;6.50;99.90;;;;;;5036551;28;20255;-95
2021/12/22 09:00:42;;;;;;;3.13;2.83;;;6.50;99.90;;;;;;5019751;28;20209;-95
2021/12/22 09:03:13;;;;;;;6.70;5.37;;;6.50;99.90;;;;;;5037549;28;20212;-95
2021/12/22 09:05:47;;;;;;;5.27;4.77;;;6.60;99.90;;;;;;5040877;28;20267;-95
2021/12/22 09:08:19;;;;;;;4.27;3.73;;;6.60;99.90;;;;;;5037297;28;20192;-94
2021/12/22 09:10:50;;;;;;;5.40;3.70;;;6.60;99.90;;;;;;5055544;28;20200;-96
2021/12/22 09:13:22;;;;;;;5.33;3.47;;;6.60;99.90;;;;;;5041271;28;20237;-96
2021/12/22 09:15:53;;;;;;;2.90;2.40;;;6.60;99.90;;;;;;5037567;28;20306;-95
2021/12/22 09:18:25;;;;;;;4.73;4.33;;;6.60;99.90;;;;;;5036847;28;20205;-95
2021/12/22 09:20:57;;;;;;;4.07;2.60;;;6.70;99.90;;;;;;5036919;28;20205;-94
2021/12/22 09:23:28;;;;;;;4.00;2.97;;;6.70;99.90;;;;;;5019617;28;20209;-95
2021/12/22 09:25:59;;;;;;;3.57;2.40;;;6.80;99.90;;;;;;5036398;28;20562;-95
2021/12/22 09:28:32;;;;;;;29.30;14.73;;;6.80;99.90;;;;;;5035317;28;20232;-95
2021/12/22 09:31:05;;;;;;;5.93;5.33;;;6.80;99.90;;;;;;5019030;28;20686;-95
2021/12/22 09:33:37;;;;;;;4.60;3.60;;;6.80;99.90;;;;;;5035881;28;20217;-94
2021/12/22 09:36:11;;;;;;;14.03;5.43;;;6.90;99.90;;;;;;5035516;28;20304;-95
2021/12/22 09:38:42;;;;;;;23.83;7.07;;;6.90;99.90;;;;;;5036620;28;20263;-95
2021/12/22 09:41:14;;;;;;;4.00;3.27;;;6.90;99.90;;;;;;5034537;28;20232;-95
2021/12/22 09:43:47;;;;;;;2.17;1.93;;;6.90;99.90;;;;;;5019311;28;20643;-95
2021/12/22 09:46:21;;;;;;;5.57;4.57;;;6.90;99.90;;;;;;5016517;28;20704;-96
2021/12/22 09:48:59;;;;;;;7.93;7.23;;;6.90;99.90;;;;;;5015578;28;20296;-96
2021/12/22 09:54:18;;;;;;;1.83;1.63;;;7.00;99.90;;;;;;5015532;28;20213;-96
2021/12/22 09:56:49;;;;;;;2.43;1.70;;;7.00;99.90;;;;;;5014361;28;20325;-94
2021/12/22 09:59:23;;;;;;;5.60;5.17;;;7.00;99.90;;;;;;5020020;28;20223;-94
2021/12/22 10:01:59;;;;;;;4.70;3.77;;;7.00;99.90;;;;;;5015186;28;20220;-94
2021/12/22 10:04:31;;;;;;;4.37;3.93;;;7.10;99.90;;;;;;5015314;28;20209;-95
2021/12/22 10:07:08;;;;;;;2.40;1.40;;;7.00;99.90;;;;;;5003440;28;20209;-95
2021/12/22 10:09:45;;;;;;;1.73;1.43;;;7.00;99.90;;;;;;5034929;28;20233;-95
2021/12/22 10:12:17;;;;;;;4.33;2.80;;;7.10;99.90;;;;;;5035994;28;20223;-93
2021/12/22 10:14:56;;;;;;;2.57;1.43;;;7.10;99.90;;;;;;5036965;28;20207;-96
2021/12/22 10:17:33;;;;;;;2.83;1.30;;;7.20;99.90;;;;;;5035588;28;20304;-95
2021/12/22 10:20:11;;;;;;;2.03;1.53;;;7.20;99.90;;;;;;5039131;28;20680;-94
2021/12/22 10:22:44;;;;;;;2.23;1.03;;;7.20;99.90;;;;;;5036216;28;20272;-93
2021/12/22 10:25:17;;;;;;;1.07;0.97;;;7.20;99.90;;;;;;5038231;28;20239;-94
2021/12/22 10:28:00;;;;;;;1.87;1.73;;;7.20;99.90;;;;;;5033615;28;20288;-95
2021/12/22 10:30:36;;;;;;;1.70;1.20;;;7.20;99.90;;;;;;5038219;28;20236;-95
2021/12/22 10:33:19;;;;;;;1.30;0.77;;;7.20;99.90;;;;;;5034867;28;20209;-95
2021/12/22 10:35:52;;;;;;;1.20;0.80;;;7.30;99.90;;;;;;5034331;28;20324;-96
2021/12/22 10:38:26;;;;;;;2.27;0.90;;;7.20;99.90;;;;;;5033469;28;20292;-95
2021/12/22 10:40:58;;;;;;;1.53;1.43;;;7.30;99.90;;;;;;5034743;28;20294;-94
2021/12/22 10:43:32;;;;;;;1.27;0.80;;;7.30;99.90;;;;;;5035349;28;20243;-95
2021/12/22 10:46:06;;;;;;;2.33;2.13;;;7.30;99.90;;;;;;5037555;28;20268;-96
2021/12/22 10:51:28;;;;;;;0.47;0.47;;;7.40;99.90;;;;;;5036164;28;20205;-94
2021/12/22 10:54:01;;;;;;;1.60;0.97;;;7.40;99.90;;;;;;5022255;28;20394;-94
2021/12/22 10:56:35;;;;;;;1.70;0.60;;;7.40;99.90;;;;;;5039743;28;20320;-95
2021/12/22 10:59:09;;;;;;;2.37;1.43;;;7.40;99.90;;;;;;5038989;28;20251;-94
2021/12/22 11:01:48;;;;;;;1.60;0.70;;;7.50;99.90;;;;;;5039495;28;20267;-95
2021/12/22 11:04:23;;;;;;;1.60;0.93;;;7.40;99.90;;;;;;5039090;28;20215;-96
2021/12/22 11:06:55;;;;;;;1.30;1.13;;;7.40;99.90;;;;;;5038773;28;20272;-96
2021/12/22 11:09:27;;;;;;;0.93;0.47;;;7.40;99.90;;;;;;5040121;28;20205;-95
2021/12/22 11:11:59;;;;;;;2.97;0.70;;;7.50;99.90;;;;;;5039876;28;20217;-96
2021/12/22 11:14:33;;;;;;;2.00;0.60;;;7.40;99.90;;;;;;5040109;28;20209;-96
2021/12/22 11:17:08;;;;;;;2.07;1.87;;;7.50;99.90;;;;;;5038405;28;20766;-96
2021/12/22 11:19:52;;;;;;;20.30;2.67;;;7.60;99.90;;;;;;5039472;28;20245;-95
2021/12/22 11:22:39;;;;;;;2.07;0.70;;;7.60;99.90;;;;;;5052482;28;20213;-95
2021/12/22 11:25:12;;;;;;;2.23;1.00;;;7.60;99.90;;;;;;5044089;28;20197;-96
2021/12/22 11:27:44;;;;;;;1.43;0.70;;;7.70;99.90;;;;;;5054038;28;20247;-95
2021/12/22 11:30:15;;;;;;;7.33;4.30;;;7.60;99.90;;;;;;5040553;28;20654;-94
2021/12/22 11:32:50;;;;;;;2.33;0.80;;;7.50;99.90;;;;;;5023335;28;20223;-95
2021/12/22 11:35:21;;;;;;;2.67;1.00;;;7.40;99.90;;;;;;5039467;28;20213;-94
2021/12/22 11:37:53;;;;;;;2.40;1.53;;;7.40;99.90;;;;;;5038818;28;20258;-96
2021/12/22 11:40:26;;;;;;;1.13;0.43;;;7.30;99.90;;;;;;5039111;28;20295;-95
2021/12/22 11:42:57;;;;;;;1.43;1.33;;;7.20;99.90;;;;;;5021942;28;20216;-96
2021/12/22 11:45:29;;;;;;;3.40;0.80;;;7.20;99.90;;;;;;5039364;28;20209;-95
2021/12/22 11:48:03;;;;;;;8.13;7.40;;;7.20;99.90;;;;;;5038619;28;20294;-94
2021/12/22 11:50:35;;;;;;;2.67;0.90;;;7.20;99.90;;;;;;5037933;28;20676;-95
2021/12/22 11:53:08;;;;;;;2.43;0.93;;;7.20;99.90;;;;;;5037614;28;20264;-96
2021/12/22 11:55:42;;;;;;;1.50;1.00;;;7.10;99.90;;;;;;5031558;28;20281;-96
2021/12/22 11:58:18;;;;;;;2.17;1.30;;;7.20;99.90;;;;;;5016652;28;20235;-95
2021/12/22 12:01:08;;;;;;;2.70;1.10;;;7.20;99.90;;;;;;5018709;28;20246;-95
2021/12/22 12:03:44;;;;;;;5.73;1.03;;;7.20;99.90;;;;;;5017934;28;20264;-96
2021/12/22 12:06:16;;;;;;;3.90;1.20;;;7.20;99.90;;;;;;5023306;28;20248;-93
2021/12/22 12:08:52;;;;;;;3.47;2.07;;;7.20;99.90;;;;;;5039463;28;20205;-95
2021/12/22 12:11:48;;;;;;;2.97;1.80;;;7.20;99.90;;;;;;5039494;28;20233;-96
2021/12/22 12:14:58;;;;;;;2.33;1.13;;;7.20;99.90;;;;;;5038137;28;20228;-96
2021/12/22 12:23:28;;;;;;;3.93;1.03;;;7.10;99.90;;;;;;5040354;28;20288;-94
2021/12/22 12:26:02;;;;;;;2.33;1.10;;;7.10;99.90;;;;;;5040300;28;20688;-95
2021/12/22 12:28:46;;;;;;;2.53;0.83;;;7.20;99.90;;;;;;5038672;28;20216;-95
2021/12/22 12:31:41;;;;;;;1.23;0.90;;;7.20;99.90;;;;;;5041741;28;20296;-95
2021/12/22 12:34:22;;;;;;;1.23;0.80;;;7.20;99.90;;;;;;5037514;28;20216;-95
2021/12/22 12:36:55;;;;;;;4.10;1.17;;;7.20;99.90;;;;;;5035989;28;20233;-94
2021/12/22 12:39:57;;;;;;;1.37;1.00;;;7.10;99.90;;;;;;5036646;28;20246;-94
2021/12/22 12:42:29;;;;;;;2.03;0.83;;;7.20;99.90;;;;;;5037056;28;20201;-94
2021/12/22 12:45:00;;;;;;;2.27;0.93;;;7.20;99.90;;;;;;5019667;28;20758;-94
2021/12/22 12:47:31;;;;;;;4.03;1.13;;;7.20;99.90;;;;;;5038809;28;20249;-94
2021/12/22 12:50:25;;;;;;;2.90;1.30;;;7.20;99.90;;;;;;5036797;28;20611;-95
2021/12/22 12:53:05;;;;;;;3.43;0.90;;;7.20;99.90;;;;;;5019057;28;20232;-95
2021/12/22 12:55:36;;;;;;;1.93;1.00;;;7.20;99.90;;;;;;5037075;28;20208;-95
2021/12/22 12:58:31;;;;;;;5.87;1.30;;;7.20;99.90;;;;;;5036351;28;20293;-96
2021/12/22 13:01:02;;;;;;;4.67;1.63;;;7.20;99.90;;;;;;5036799;28;20218;-94
2021/12/22 13:03:49;;;;;;;1.93;1.20;;;7.20;99.90;;;;;;5036883;28;20263;-94
2021/12/22 13:06:20;;;;;;;1.30;0.87;;;7.20;99.90;;;;;;5036626;28;20931;-94
2021/12/22 13:08:53;;;;;;;2.97;0.80;;;7.20;99.90;;;;;;5038961;28;20236;-95
2021/12/22 13:11:26;;;;;;;4.30;0.90;;;7.20;99.90;;;;;;5036320;28;20285;-95
2021/12/22 13:16:45;;;;;;;1.10;1.00;;;7.20;99.90;;;;;;5036373;28;20294;-95
2021/12/22 13:19:43;;;;;;;1.37;0.80;;;7.20;99.90;;;;;;5003209;28;20561;-96
2021/12/22 13:22:21;;;;;;;2.17;1.27;;;7.20;99.90;;;;;;5017229;28;20240;-96
2021/12/22 13:25:09;;;;;;;3.63;0.97;;;7.20;99.90;;;;;;5019472;28;20201;-96
2021/12/22 13:27:41;;;;;;;3.00;1.70;;;7.20;99.90;;;;;;5030370;28;20275;-96
2021/12/22 13:30:15;;;;;;;1.23;0.80;;;7.20;99.90;;;;;;5040212;28;20259;-96
2021/12/22 13:33:01;;;;;;;2.87;1.43;;;7.20;99.90;;;;;;5055958;28;20189;-96
2021/12/22 13:35:37;;;;;;;2.13;0.93;;;7.20;99.90;;;;;;5055939;28;20220;-96
2021/12/22 13:38:11;;;;;;;2.33;1.20;;;7.10;99.90;;;;;;5052195;28;20275;-96
2021/12/22 13:40:53;;;;;;;2.23;0.97;;;7.10;99.90;;;;;;5055420;28;20221;-96
2021/12/22 13:43:30;;;;;;;1.67;1.07;;;7.20;99.90;;;;;;5023754;28;20229;-95
2021/12/22 13:46:14;;;;;;;4.50;2.30;;;7.20;99.90;;;;;;5036630;28;20268;-96
2021/12/22 13:48:50;;;;;;;2.57;0.70;;;7.20;99.90;;;;;;5019248;28;20212;-96